Time;durP1;ratioP1;P1;durP2;ratioP2;P2;SDS_P1;SDS_P2;PMS_P1;PMS_P2;Temp;Humidity;BMP_temperature;BMP_pressure;BME280_temperature;BME280_humidity;BME280_pressure;Samples;Min_cycle;Max_cycle;Signal;HPM_P1;HPM_P2
2022/11/15 00:00:52;;;;;;;23.77;19.95;;;7.50;99.90;;;;;;5032990;28;20033;-62
2022/11/15 00:03:21;;;;;;;24.67;20.48;;;7.50;99.90;;;;;;5023043;28;20446;-62
2022/11/15 00:05:47;;;;;;;23.10;19.63;;;7.50;99.90;;;;;;5038197;28;20044;-62
2022/11/15 00:08:13;;;;;;;23.30;20.10;;;7.60;99.90;;;;;;5040837;28;20124;-62
2022/11/15 00:10:39;;;;;;;23.02;19.33;;;7.50;99.90;;;;;;5056538;28;20105;-63
2022/11/15 00:13:12;;;;;;;23.63;19.58;;;7.50;99.90;;;;;;5024609;28;20040;-63
2022/11/15 00:15:41;;;;;;;23.13;20.25;;;7.60;99.90;;;;;;5033400;28;20132;-65
2022/11/15 00:18:14;;;;;;;23.45;19.77;;;7.60;99.90;;;;;;5044083;28;20032;-62
2022/11/15 00:20:40;;;;;;;25.52;19.85;;;7.60;99.90;;;;;;5036703;28;20111;-62
2022/11/15 00:23:06;;;;;;;24.48;19.98;;;7.60;99.90;;;;;;5022423;28;20120;-63
2022/11/15 00:25:32;;;;;;;22.33;19.20;;;7.50;99.90;;;;;;5034582;28;20112;-62
2022/11/15 00:27:59;;;;;;;22.17;19.27;;;7.50;99.90;;;;;;5024413;28;20521;-62
2022/11/15 00:30:26;;;;;;;24.05;19.95;;;7.50;99.90;;;;;;5037379;28;20041;-64
2022/11/15 00:32:51;;;;;;;23.88;19.27;;;7.50;99.90;;;;;;5034277;28;20036;-63
2022/11/15 00:35:18;;;;;;;22.75;19.45;;;7.50;99.90;;;;;;5040279;28;20094;-62
2022/11/15 00:37:43;;;;;;;23.67;18.70;;;7.50;99.90;;;;;;5039209;28;20033;-62
2022/11/15 00:40:10;;;;;;;21.33;18.25;;;7.50;99.90;;;;;;5036718;28;20048;-63
2022/11/15 00:42:35;;;;;;;23.23;19.85;;;7.50;99.90;;;;;;5034376;28;20036;-63
2022/11/15 00:45:01;;;;;;;22.23;18.33;;;7.50;99.90;;;;;;5037271;28;20041;-63
2022/11/15 00:47:27;;;;;;;25.45;19.70;;;7.50;99.90;;;;;;5043469;28;20118;-62
2022/11/15 00:49:53;;;;;;;22.40;18.60;;;7.50;99.90;;;;;;5040850;28;20036;-62
2022/11/15 00:52:18;;;;;;;25.27;18.60;;;7.50;99.90;;;;;;5037143;28;20075;-62
2022/11/15 00:54:44;;;;;;;22.77;18.75;;;7.50;99.90;;;;;;5041880;28;20477;-62
2022/11/15 00:57:10;;;;;;;24.60;20.08;;;7.50;99.90;;;;;;5043712;28;20037;-63
2022/11/15 00:59:35;;;;;;;24.73;19.05;;;7.40;99.90;;;;;;5020016;28;20036;-62
2022/11/15 01:02:01;;;;;;;22.98;18.67;;;7.40;99.90;;;;;;5042031;28;20044;-63
2022/11/15 01:04:26;;;;;;;25.50;19.60;;;7.50;99.90;;;;;;5035854;28;20036;-62
2022/11/15 01:06:52;;;;;;;23.67;18.58;;;7.40;99.90;;;;;;5035704;28;20070;-62
2022/11/15 01:09:18;;;;;;;23.77;19.63;;;7.50;99.90;;;;;;5041616;28;20091;-63
2022/11/15 01:11:43;;;;;;;24.02;19.20;;;7.50;99.90;;;;;;5043969;28;20536;-63
2022/11/15 01:14:09;;;;;;;26.63;19.30;;;7.50;99.90;;;;;;5041441;28;20048;-62
2022/11/15 01:16:35;;;;;;;27.33;19.77;;;7.50;99.90;;;;;;5021226;28;20422;-62
2022/11/15 01:19:00;;;;;;;26.58;20.63;;;7.60;99.90;;;;;;5057629;28;20037;-62
2022/11/15 01:21:26;;;;;;;25.92;20.20;;;7.60;99.90;;;;;;5038179;28;20395;-62
2022/11/15 01:23:56;;;;;;;28.05;19.17;;;7.60;99.90;;;;;;5042138;28;20102;-62
2022/11/15 01:26:22;;;;;;;25.73;19.50;;;7.60;99.90;;;;;;5023678;28;20026;-63
2022/11/15 01:28:48;;;;;;;28.25;20.42;;;7.60;99.90;;;;;;5040367;28;20063;-64
2022/11/15 01:31:19;;;;;;;30.80;21.63;;;7.60;99.90;;;;;;5025454;28;20103;-62
2022/11/15 01:33:46;;;;;;;28.60;20.52;;;7.70;99.90;;;;;;5040963;28;20045;-63
2022/11/15 01:36:14;;;;;;;28.50;20.92;;;7.70;99.90;;;;;;5064677;28;20032;-62
2022/11/15 01:38:40;;;;;;;27.30;21.33;;;7.70;99.90;;;;;;5024827;28;20044;-62
2022/11/15 01:41:05;;;;;;;27.70;21.90;;;7.70;99.90;;;;;;5028111;28;20075;-62
2022/11/15 01:43:33;;;;;;;28.42;21.42;;;7.70;99.90;;;;;;5025927;28;20049;-62
2022/11/15 01:46:14;;;;;;;32.00;21.60;;;7.70;99.90;;;;;;5011677;28;20073;-62
2022/11/15 01:48:39;;;;;;;32.58;23.35;;;7.70;99.90;;;;;;5028285;28;20081;-62
2022/11/15 01:51:11;;;;;;;28.85;21.35;;;7.70;99.90;;;;;;5030623;28;20081;-62
2022/11/15 01:53:39;;;;;;;26.98;20.60;;;7.70;99.90;;;;;;5027267;28;20033;-62
2022/11/15 01:56:09;;;;;;;29.83;21.88;;;7.70;99.90;;;;;;5029228;28;20040;-61
2022/11/15 01:58:35;;;;;;;28.80;20.83;;;7.80;99.90;;;;;;5026167;28;20029;-62
2022/11/15 02:01:01;;;;;;;31.20;22.10;;;7.70;99.90;;;;;;5027458;28;20317;-62
2022/11/15 02:03:34;;;;;;;29.15;21.58;;;7.80;99.90;;;;;;5028263;28;20037;-63
2022/11/15 02:06:00;;;;;;;31.90;22.13;;;7.80;99.90;;;;;;5028863;28;20048;-63
2022/11/15 02:08:25;;;;;;;34.40;22.83;;;7.80;99.90;;;;;;5030370;28;20033;-62
2022/11/15 02:10:51;;;;;;;33.75;22.25;;;7.80;99.90;;;;;;5033816;28;20053;-62
2022/11/15 02:13:17;;;;;;;37.50;23.90;;;7.80;99.90;;;;;;5012299;28;20044;-62
2022/11/15 02:16:01;;;;;;;34.72;22.70;;;7.90;99.90;;;;;;5028935;28;20037;-62
2022/11/15 02:18:34;;;;;;;39.28;24.25;;;7.90;99.90;;;;;;5010121;28;20037;-62
2022/11/15 02:21:08;;;;;;;38.35;24.20;;;7.90;99.90;;;;;;5027754;28;20041;-64
2022/11/15 02:23:53;;;;;;;;;;;7.90;99.90;;;;;;5012233;28;20033;-63
2022/11/15 02:26:50;;;;;;;40.28;24.67;;;7.90;99.90;;;;;;5026200;28;19960;-65
2022/11/15 02:29:25;;;;;;;39.80;26.00;;;7.90;99.90;;;;;;5013195;28;20033;-62
2022/11/15 02:32:21;;;;;;;39.28;25.48;;;7.90;99.90;;;;;;5012120;28;20068;-63
2022/11/15 02:35:18;;;;;;;40.13;24.42;;;7.90;99.90;;;;;;5061991;28;20091;-63
2022/11/15 02:37:56;;;;;;;40.55;25.48;;;8.00;99.90;;;;;;5030004;28;20029;-63
2022/11/15 02:40:38;;;;;;;39.83;25.02;;;8.00;99.90;;;;;;5026197;28;20171;-63
2022/11/15 02:44:06;;;;;;;38.28;25.35;;;8.00;99.90;;;;;;5028911;28;20140;-62
2022/11/15 02:46:16;;;;;;;40.40;24.73;;;8.00;99.90;;;;;;5011224;28;20153;-62
2022/11/15 02:48:44;;;;;;;41.05;24.42;;;8.10;99.90;;;;;;5027534;28;20034;-63
2022/11/15 02:51:11;;;;;;;39.67;24.98;;;8.10;99.90;;;;;;5037777;28;20092;-62
2022/11/15 02:53:37;;;;;;;40.70;24.63;;;8.10;99.90;;;;;;5029984;28;20072;-63
2022/11/15 02:56:03;;;;;;;38.88;25.08;;;8.20;99.90;;;;;;5030162;28;20087;-64
2022/11/15 02:58:47;;;;;;;38.63;24.90;;;8.20;99.90;;;;;;5025582;28;20069;-63
2022/11/15 03:01:13;;;;;;;41.65;25.50;;;8.20;99.90;;;;;;5024836;28;20041;-63
2022/11/15 03:04:02;;;;;;;37.63;26.08;;;8.20;99.90;;;;;;5013626;28;20033;-64
2022/11/15 03:06:52;;;;;;;40.47;24.73;;;8.20;99.90;;;;;;5027433;28;20452;-63
2022/11/15 03:10:05;;;;;;;39.38;25.65;;;8.30;99.90;;;;;;5011811;28;20038;-64
2022/11/15 03:12:40;;;;;;;39.72;25.08;;;8.30;99.90;;;;;;5052811;28;20037;-63
2022/11/15 03:15:21;;;;;;;34.88;24.33;;;8.30;99.90;;;;;;5029626;28;20087;-62
2022/11/15 03:18:19;;;;;;;36.40;25.88;;;8.40;99.90;;;;;;5022272;28;20557;-63
2022/11/15 03:20:45;;;;;;;38.38;24.20;;;8.40;99.90;;;;;;5026994;28;20439;-62
2022/11/15 03:23:11;;;;;;;35.83;25.75;;;8.40;99.90;;;;;;5026553;28;20601;-63
2022/11/15 03:25:43;;;;;;;36.58;24.65;;;8.40;99.90;;;;;;5024648;28;20099;-62
2022/11/15 03:28:12;;;;;;;35.97;24.73;;;8.50;99.90;;;;;;5026083;28;20112;-64
2022/11/15 03:30:39;;;;;;;35.15;24.60;;;8.50;99.90;;;;;;5026615;28;20517;-63
2022/11/15 03:33:06;;;;;;;35.92;26.30;;;8.50;99.90;;;;;;5029157;28;20505;-63
2022/11/15 03:35:39;;;;;;;34.33;24.95;;;8.50;99.90;;;;;;5029315;28;20119;-62
2022/11/15 03:38:25;;;;;;;33.60;25.13;;;8.50;99.90;;;;;;5011902;28;20045;-62
2022/11/15 03:41:04;;;;;;;43.13;28.08;;;8.60;99.90;;;;;;5036481;28;20482;-61
2022/11/15 03:43:44;;;;;;;41.45;27.60;;;8.60;99.90;;;;;;5037504;28;20378;-62
2022/11/15 03:46:34;;;;;;;45.85;28.23;;;8.70;99.90;;;;;;5037804;28;20033;-62
2022/11/15 03:49:15;;;;;;;44.20;29.95;;;8.70;99.90;;;;;;5017935;28;20043;-62
2022/11/15 03:51:41;;;;;;;47.20;29.92;;;8.70;99.90;;;;;;5037626;28;20036;-62
2022/11/15 03:54:07;;;;;;;51.22;30.13;;;8.70;99.90;;;;;;5040537;28;20040;-62
2022/11/15 03:56:32;;;;;;;52.28;31.02;;;8.70;99.90;;;;;;5039681;28;20449;-62
2022/11/15 03:58:58;;;;;;;49.22;31.42;;;8.80;99.90;;;;;;5032178;28;20044;-62
2022/11/15 04:01:24;;;;;;;52.47;31.00;;;8.80;99.90;;;;;;5023825;28;20040;-62
2022/11/15 04:03:49;;;;;;;63.80;32.90;;;8.80;99.90;;;;;;5039777;28;20055;-62
2022/11/15 04:06:15;;;;;;;58.08;32.00;;;8.80;99.90;;;;;;5039461;28;20404;-62
2022/11/15 04:08:40;;;;;;;51.00;32.50;;;8.80;99.90;;;;;;5020097;28;20047;-63
2022/11/15 04:11:06;;;;;;;52.85;32.75;;;8.90;99.90;;;;;;5023679;28;20504;-62
2022/11/15 04:13:32;;;;;;;60.88;33.85;;;8.90;99.90;;;;;;5039076;28;20137;-61
2022/11/15 04:15:58;;;;;;;56.03;32.85;;;8.90;99.90;;;;;;5035427;28;20098;-62
2022/11/15 04:18:24;;;;;;;54.65;32.53;;;8.90;99.90;;;;;;5036197;28;20083;-62
2022/11/15 04:26:22;;;;;;;59.13;34.53;;;9.00;99.90;;;;;;5038257;28;20036;-61
2022/11/15 04:31:32;;;;;;;53.50;33.05;;;9.10;99.90;;;;;;5057610;28;20045;-62
2022/11/15 04:33:57;;;;;;;55.00;33.05;;;9.10;99.90;;;;;;5043265;28;20048;-61
2022/11/15 04:39:08;;;;;;;57.50;34.38;;;9.20;99.90;;;;;;5040549;28;20749;-62
2022/11/15 04:41:33;;;;;;;59.13;33.25;;;9.10;99.90;;;;;;5036779;28;20117;-61
2022/11/15 04:43:59;;;;;;;61.00;35.33;;;9.20;99.90;;;;;;5035434;28;20414;-62
2022/11/15 04:46:25;;;;;;;62.90;34.40;;;9.20;99.90;;;;;;5006392;28;20092;-61
2022/11/15 04:48:51;;;;;;;61.83;33.97;;;9.20;99.90;;;;;;5019491;28;20439;-61
2022/11/15 04:51:17;;;;;;;56.85;33.85;;;9.20;99.90;;;;;;5006542;28;20127;-62
2022/11/15 04:53:42;;;;;;;52.17;34.78;;;9.20;99.90;;;;;;5027683;28;20128;-62
2022/11/15 04:56:08;;;;;;;57.72;33.72;;;9.30;99.90;;;;;;5021627;28;20385;-62
2022/11/15 04:58:35;;;;;;;54.88;33.60;;;9.30;99.90;;;;;;5021885;28;20045;-62
2022/11/15 05:01:13;;;;;;;58.80;34.78;;;9.30;99.90;;;;;;5020123;28;20316;-62
2022/11/15 05:06:23;;;;;;;50.53;32.47;;;9.40;99.90;;;;;;5039230;28;20053;-61
2022/11/15 05:08:48;;;;;;;49.97;33.28;;;9.30;99.90;;;;;;5021656;28;20316;-61
2022/11/15 05:11:14;;;;;;;48.80;32.30;;;9.40;99.90;;;;;;5022866;28;20135;-61
2022/11/15 05:13:40;;;;;;;49.65;32.45;;;9.40;99.90;;;;;;5023790;28;20564;-62
2022/11/15 05:16:05;;;;;;;50.55;32.67;;;9.40;99.90;;;;;;5015134;28;20053;-62
2022/11/15 05:18:31;;;;;;;48.92;31.77;;;9.40;99.90;;;;;;5020373;28;20068;-63
2022/11/15 05:21:03;;;;;;;46.60;30.67;;;9.50;99.90;;;;;;5020719;28;20077;-62
2022/11/15 05:23:29;;;;;;;53.33;32.25;;;9.50;99.90;;;;;;5041656;28;20339;-62
2022/11/15 05:26:02;;;;;;;46.95;30.80;;;9.50;99.90;;;;;;5018889;28;20041;-62
2022/11/15 05:28:28;;;;;;;55.78;32.47;;;9.60;99.90;;;;;;5040225;28;20037;-63
2022/11/15 05:30:59;;;;;;;53.40;31.10;;;9.60;99.90;;;;;;5018292;28;20040;-61
2022/11/15 05:33:25;;;;;;;54.05;32.45;;;9.60;99.90;;;;;;5015437;28;20088;-61
2022/11/15 05:35:58;;;;;;;47.78;31.25;;;9.60;99.90;;;;;;5041471;28;20085;-61
2022/11/15 05:38:24;;;;;;;54.80;33.42;;;9.60;99.90;;;;;;5023901;28;20109;-62
2022/11/15 05:40:49;;;;;;;48.75;31.42;;;9.70;99.90;;;;;;5006777;28;20217;-63
2022/11/15 05:43:15;;;;;;;50.63;32.63;;;9.70;99.90;;;;;;5007731;28;20052;-62
2022/11/15 05:45:41;;;;;;;53.25;32.17;;;9.70;99.90;;;;;;5012742;28;20526;-62
2022/11/15 05:48:09;;;;;;;52.85;33.03;;;9.70;99.90;;;;;;5013092;28;20082;-62
2022/11/15 05:50:38;;;;;;;49.97;32.30;;;9.80;99.90;;;;;;5007552;28;20365;-61
2022/11/15 05:53:05;;;;;;;51.80;32.20;;;9.80;99.90;;;;;;5007752;28;20403;-61
2022/11/15 05:55:31;;;;;;;55.00;32.08;;;9.80;99.90;;;;;;4985680;28;20038;-61
2022/11/15 05:57:59;;;;;;;47.20;30.83;;;9.90;99.90;;;;;;5003447;28;20442;-62
2022/11/15 06:00:25;;;;;;;47.13;29.90;;;9.90;99.90;;;;;;5007997;28;20045;-61
2022/11/15 06:02:51;;;;;;;47.45;31.35;;;9.90;99.90;;;;;;5009043;28;20037;-61
2022/11/15 06:05:16;;;;;;;52.47;31.67;;;9.90;99.90;;;;;;5006093;28;20030;-62
2022/11/15 06:07:43;;;;;;;50.47;31.25;;;9.90;99.90;;;;;;5011247;28;20026;-62
2022/11/15 06:10:09;;;;;;;52.33;31.38;;;10.00;99.90;;;;;;5026410;28;20052;-62
2022/11/15 06:12:35;;;;;;;48.45;30.52;;;10.00;99.90;;;;;;4996988;28;20037;-61
2022/11/15 06:15:00;;;;;;;44.83;31.35;;;10.00;99.90;;;;;;5007196;28;20155;-64
2022/11/15 06:17:26;;;;;;;48.58;30.60;;;10.00;99.90;;;;;;5005619;28;20061;-62
2022/11/15 06:19:51;;;;;;;47.00;30.75;;;10.00;99.90;;;;;;5008750;28;20061;-62
2022/11/15 06:22:17;;;;;;;46.83;30.92;;;10.10;99.90;;;;;;5008053;28;20375;-62
2022/11/15 06:24:43;;;;;;;44.30;29.88;;;10.10;99.90;;;;;;4999017;28;20045;-64
2022/11/15 06:27:10;;;;;;;49.05;30.83;;;10.10;99.90;;;;;;5006213;28;20136;-62
2022/11/15 06:29:36;;;;;;;41.58;29.30;;;10.10;99.90;;;;;;5005193;28;20127;-62
2022/11/15 06:32:02;;;;;;;44.13;30.38;;;10.10;99.90;;;;;;5009630;28;20104;-63
2022/11/15 06:34:27;;;;;;;44.45;28.80;;;10.10;99.90;;;;;;5006628;28;20049;-62
2022/11/15 06:36:53;;;;;;;42.25;28.17;;;10.10;99.90;;;;;;5009170;28;20422;-61
2022/11/15 06:39:18;;;;;;;38.35;29.02;;;10.10;99.90;;;;;;5008826;28;20066;-63
2022/11/15 06:41:44;;;;;;;44.80;29.52;;;10.20;99.90;;;;;;5023022;28;20063;-61
2022/11/15 06:44:10;;;;;;;39.28;28.15;;;10.20;99.90;;;;;;5011586;28;20037;-62
2022/11/15 06:46:35;;;;;;;40.85;29.60;;;10.20;99.90;;;;;;5012256;28;20454;-61
2022/11/15 06:49:01;;;;;;;42.95;27.75;;;10.20;99.90;;;;;;5006991;28;20087;-62
2022/11/15 06:51:26;;;;;;;38.13;28.75;;;10.20;99.90;;;;;;5023932;28;20058;-60
2022/11/15 06:53:52;;;;;;;34.05;26.95;;;10.20;99.90;;;;;;5006522;28;20040;-62
2022/11/15 06:56:17;;;;;;;38.17;27.17;;;10.20;99.90;;;;;;5008042;28;20041;-61
2022/11/15 06:58:43;;;;;;;36.55;27.17;;;10.30;99.90;;;;;;5012904;28;20065;-62
2022/11/15 07:01:10;;;;;;;35.63;26.83;;;10.30;99.90;;;;;;4978918;28;20451;-61
2022/11/15 07:03:38;;;;;;;34.42;26.58;;;10.30;99.90;;;;;;5005409;28;20053;-62
2022/11/15 07:06:04;;;;;;;34.67;26.58;;;10.30;99.90;;;;;;5004852;28;20037;-62
2022/11/15 07:08:30;;;;;;;32.47;25.67;;;10.30;99.90;;;;;;5005462;28;20030;-61
2022/11/15 07:11:01;;;;;;;34.65;27.08;;;10.30;99.90;;;;;;5009607;28;20112;-62
2022/11/15 07:13:28;;;;;;;36.38;27.40;;;10.30;99.90;;;;;;5005996;28;20441;-62
2022/11/15 07:15:54;;;;;;;35.65;26.17;;;10.40;99.90;;;;;;4986941;28;20466;-62
2022/11/15 07:18:20;;;;;;;35.38;26.42;;;10.40;99.90;;;;;;4988776;28;20034;-62
2022/11/15 07:20:46;;;;;;;34.42;27.13;;;10.40;99.90;;;;;;5007025;28;20186;-62
2022/11/15 07:23:12;;;;;;;33.80;26.77;;;10.40;99.90;;;;;;5024608;28;20064;-63
2022/11/15 07:25:37;;;;;;;34.40;25.77;;;10.40;99.90;;;;;;5004794;28;20038;-62
2022/11/15 07:28:03;;;;;;;34.78;26.13;;;10.50;99.90;;;;;;5005928;28;20073;-62
2022/11/15 07:30:29;;;;;;;31.95;26.30;;;10.50;99.90;;;;;;5007495;28;20041;-62
2022/11/15 07:32:57;;;;;;;34.75;26.85;;;10.50;99.90;;;;;;4983701;28;20324;-61
2022/11/15 07:35:23;;;;;;;34.72;25.77;;;10.50;99.90;;;;;;5009255;28;20049;-61
2022/11/15 07:37:59;;;;;;;34.05;26.25;;;10.50;99.90;;;;;;5011237;28;20049;-62
2022/11/15 07:40:31;;;;;;;38.53;25.92;;;10.50;99.90;;;;;;5030333;28;20084;-63
2022/11/15 07:43:05;;;;;;;34.45;26.17;;;10.50;99.90;;;;;;5002577;28;20049;-62
2022/11/15 07:45:33;;;;;;;37.13;29.80;;;10.50;99.90;;;;;;5013844;28;20034;-61
2022/11/15 07:47:59;;;;;;;39.88;30.88;;;10.60;99.90;;;;;;5016906;28;20045;-64
2022/11/15 07:50:25;;;;;;;38.95;30.52;;;10.50;99.90;;;;;;5019981;28;20033;-62
2022/11/15 07:52:58;;;;;;;34.97;30.23;;;10.50;99.90;;;;;;5018275;28;20049;-62
2022/11/15 07:55:29;;;;;;;42.92;37.50;;;10.50;99.90;;;;;;5022190;28;20033;-62
2022/11/15 07:58:06;;;;;;;42.90;36.13;;;10.50;99.90;;;;;;5021123;28;20072;-62
2022/11/15 08:00:33;;;;;;;34.08;26.75;;;10.50;99.90;;;;;;5018113;28;20044;-61
2022/11/15 08:03:07;;;;;;;41.75;32.50;;;10.60;99.90;;;;;;5019910;28;20094;-62
2022/11/15 08:05:33;;;;;;;36.33;30.67;;;10.60;99.90;;;;;;5022549;28;20081;-63
2022/11/15 08:07:59;;;;;;;31.38;25.23;;;10.60;99.90;;;;;;5005261;28;20095;-62
2022/11/15 08:10:26;;;;;;;36.05;26.25;;;10.70;99.90;;;;;;5008596;28;20041;-62
2022/11/15 08:13:06;;;;;;;37.03;29.10;;;10.70;99.90;;;;;;5022728;28;20379;-62
2022/11/15 08:15:33;;;;;;;56.90;51.00;;;10.80;99.90;;;;;;4999747;28;20100;-62
2022/11/15 08:18:01;;;;;;;45.55;40.60;;;10.80;99.90;;;;;;5022327;28;20048;-63
2022/11/15 08:20:29;;;;;;;37.17;30.00;;;10.90;99.90;;;;;;5008090;28;20056;-62
2022/11/15 08:22:56;;;;;;;35.40;26.88;;;10.90;99.90;;;;;;5021237;28;20040;-62
2022/11/15 08:25:22;;;;;;;33.58;25.92;;;10.90;99.90;;;;;;5016802;28;20065;-62
2022/11/15 08:27:50;;;;;;;35.75;27.42;;;10.90;99.90;;;;;;5023641;28;20411;-64
2022/11/15 08:30:16;;;;;;;30.23;25.80;;;10.90;99.90;;;;;;5004966;28;20046;-61
2022/11/15 08:32:41;;;;;;;30.38;24.83;;;11.00;99.90;;;;;;5022444;28;20040;-64
2022/11/15 08:35:08;;;;;;;35.75;26.77;;;10.90;99.90;;;;;;5006484;28;20037;-62
2022/11/15 08:37:35;;;;;;;33.92;26.85;;;10.90;99.90;;;;;;5023572;28;20080;-62
2022/11/15 08:40:01;;;;;;;34.90;27.13;;;10.90;99.90;;;;;;5031330;28;20048;-63
2022/11/15 08:42:27;;;;;;;36.75;27.77;;;11.00;99.90;;;;;;5021249;28;20040;-62
2022/11/15 08:44:52;;;;;;;34.33;26.35;;;11.00;99.90;;;;;;5038948;28;20041;-63
2022/11/15 08:47:18;;;;;;;37.55;25.98;;;11.10;99.90;;;;;;5041322;28;20128;-60
2022/11/15 08:49:44;;;;;;;31.67;25.42;;;11.10;99.90;;;;;;5038984;28;20040;-62
2022/11/15 08:52:09;;;;;;;32.20;26.48;;;11.10;99.90;;;;;;5025541;28;20109;-61
2022/11/15 08:54:35;;;;;;;30.70;25.05;;;11.10;99.90;;;;;;5027474;28;20075;-62
2022/11/15 08:57:00;;;;;;;33.55;24.90;;;11.10;99.90;;;;;;5044245;28;20148;-62
2022/11/15 08:59:26;;;;;;;33.15;29.52;;;11.10;99.90;;;;;;5040677;28;20045;-62
2022/11/15 09:01:52;;;;;;;30.50;25.00;;;11.20;99.90;;;;;;5040938;28;20047;-62
2022/11/15 09:04:17;;;;;;;29.45;24.30;;;11.20;99.90;;;;;;5022576;28;20505;-61
2022/11/15 09:06:43;;;;;;;30.80;24.30;;;11.20;99.90;;;;;;5040529;28;20040;-62
2022/11/15 09:09:08;;;;;;;31.88;25.95;;;11.30;99.90;;;;;;5040990;28;20110;-61
2022/11/15 09:11:34;;;;;;;30.17;23.65;;;11.30;99.90;;;;;;5062083;28;20048;-61
2022/11/15 09:14:00;;;;;;;34.22;23.02;;;11.40;99.90;;;;;;5039692;28;20453;-61
2022/11/15 09:16:25;;;;;;;28.20;23.70;;;11.40;99.90;;;;;;5032055;28;20438;-61
2022/11/15 09:18:52;;;;;;;27.95;21.83;;;11.40;99.90;;;;;;5038076;28;20107;-61
2022/11/15 09:21:17;;;;;;;29.77;22.25;;;11.40;99.90;;;;;;5038655;28;20049;-63
2022/11/15 09:23:43;;;;;;;27.13;22.35;;;11.40;99.90;;;;;;5042160;28;20040;-64
2022/11/15 09:26:08;;;;;;;26.23;21.67;;;11.40;99.90;;;;;;5037699;28;20044;-64
2022/11/15 09:28:36;;;;;;;28.55;22.42;;;11.40;99.90;;;;;;5040130;28;20048;-62
2022/11/15 09:31:05;;;;;;;27.67;21.80;;;11.40;99.90;;;;;;5036764;28;20045;-62
2022/11/15 09:33:31;;;;;;;27.38;20.95;;;11.40;99.90;;;;;;5022631;28;20052;-62
2022/11/15 09:36:05;;;;;;;27.45;21.45;;;11.40;99.90;;;;;;5024617;28;20034;-62
2022/11/15 09:38:31;;;;;;;;;;;11.50;99.90;;;;;;5064954;28;20041;-62
2022/11/15 09:41:33;;;;;;;23.80;21.08;;;11.40;99.90;;;;;;5031834;28;19932;-61
2022/11/15 09:44:30;;;;;;;23.92;20.13;;;11.40;99.90;;;;;;5025787;28;20042;-61
2022/11/15 09:47:00;;;;;;;23.35;19.50;;;11.50;99.90;;;;;;5040050;28;20037;-61
2022/11/15 09:49:27;;;;;;;21.80;18.88;;;11.50;99.90;;;;;;5012812;28;20046;-61
2022/11/15 09:51:54;;;;;;;21.67;19.27;;;11.50;99.90;;;;;;5031325;28;20075;-63
2022/11/15 09:54:35;;;;;;;22.65;18.70;;;11.50;99.90;;;;;;5013768;28;20048;-62
2022/11/15 09:57:05;;;;;;;22.10;19.73;;;11.50;99.90;;;;;;5012075;28;20073;-62
2022/11/15 09:59:55;;;;;;;20.23;18.15;;;11.60;99.90;;;;;;5027281;28;20037;-61
2022/11/15 10:02:46;;;;;;;20.90;18.70;;;11.60;99.90;;;;;;5012739;28;20038;-61
2022/11/15 10:05:15;;;;;;;19.25;17.23;;;11.60;99.90;;;;;;5027719;28;20466;-62
2022/11/15 10:07:51;;;;;;;19.17;16.60;;;11.60;99.90;;;;;;5013239;28;20068;-62
2022/11/15 10:10:30;;;;;;;18.58;16.63;;;11.70;99.90;;;;;;5054023;28;20046;-61
2022/11/15 10:12:57;;;;;;;20.05;15.95;;;11.70;99.90;;;;;;5025782;28;20055;-62
2022/11/15 10:15:23;;;;;;;20.60;17.65;;;11.70;99.90;;;;;;5027722;28;20049;-61
2022/11/15 10:17:55;;;;;;;18.45;16.30;;;11.70;99.90;;;;;;5025701;28;20040;-61
2022/11/15 10:20:24;;;;;;;17.08;14.98;;;11.80;99.90;;;;;;5030723;28;20172;-62
2022/11/15 10:22:55;;;;;;;18.40;14.88;;;11.80;99.90;;;;;;5028005;28;20057;-61
2022/11/15 10:25:32;;;;;;;17.15;15.13;;;11.90;99.90;;;;;;5007313;28;20033;-62
2022/11/15 10:28:21;;;;;;;16.55;14.77;;;11.90;99.90;;;;;;5057571;28;20041;-62
2022/11/15 10:30:50;;;;;;;18.85;16.85;;;11.90;99.90;;;;;;5011139;28;20407;-63
2022/11/15 10:33:23;;;;;;;15.65;13.55;;;11.90;99.90;;;;;;5029357;28;20060;-62
2022/11/15 10:36:09;;;;;;;16.30;12.93;;;12.00;99.90;;;;;;5012061;28;20369;-62
2022/11/15 10:38:53;;;;;;;15.80;12.10;;;12.00;99.90;;;;;;5056021;28;20041;-64
2022/11/15 10:41:26;;;;;;;17.45;11.48;;;12.00;99.90;;;;;;5018746;28;20060;-62
2022/11/15 10:44:20;;;;;;;14.75;11.93;;;12.00;99.90;;;;;;4996106;28;20080;-62
2022/11/15 10:46:55;;;;;;;13.57;10.40;;;12.10;99.90;;;;;;5019091;28;20033;-63
2022/11/15 10:49:25;;;;;;;12.52;9.43;;;12.00;99.90;;;;;;5015227;28;20410;-62
2022/11/15 10:52:16;;;;;;;12.15;9.60;;;12.00;99.90;;;;;;5005648;28;20033;-62
2022/11/15 10:54:44;;;;;;;11.90;9.88;;;12.00;99.90;;;;;;5019345;28;20042;-62
2022/11/15 10:57:16;;;;;;;11.68;8.85;;;12.10;99.90;;;;;;5017274;28;20041;-62
2022/11/15 10:59:50;;;;;;;11.73;9.30;;;12.10;99.90;;;;;;5042096;28;20049;-62
2022/11/15 11:02:28;;;;;;;12.85;9.15;;;12.20;99.90;;;;;;5033536;28;20092;-63
2022/11/15 11:04:54;;;;;;;10.73;8.70;;;12.20;99.90;;;;;;5016636;28;20041;-63
2022/11/15 11:07:22;;;;;;;10.68;8.05;;;12.30;99.90;;;;;;5016637;28;20045;-63
2022/11/15 11:10:05;;;;;;;11.40;7.95;;;12.40;99.90;;;;;;5019154;28;20148;-63
2022/11/15 11:12:33;;;;;;;12.25;8.20;;;12.40;99.90;;;;;;5016058;28;20051;-63
2022/11/15 11:15:01;;;;;;;12.05;7.85;;;12.40;99.90;;;;;;5040917;28;20103;-62
2022/11/15 11:17:42;;;;;;;9.93;7.68;;;12.50;99.90;;;;;;5018352;28;20041;-62
2022/11/15 11:20:27;;;;;;;10.10;7.07;;;12.60;99.90;;;;;;5018328;28;20074;-63
2022/11/15 11:23:20;;;;;;;8.50;6.82;;;12.60;99.90;;;;;;5015667;28;20045;-62
2022/11/15 11:26:07;;;;;;;13.10;7.03;;;12.60;99.90;;;;;;5019502;28;20082;-62
2022/11/15 11:29:03;;;;;;;10.68;7.10;;;12.60;99.90;;;;;;5037972;28;20029;-63
2022/11/15 11:31:40;;;;;;;9.38;6.43;;;12.60;99.90;;;;;;5016769;28;20033;-62
2022/11/15 11:34:27;;;;;;;8.35;5.95;;;12.60;99.90;;;;;;5018741;28;20059;-62
2022/11/15 11:37:38;;;;;;;8.73;6.22;;;12.70;99.90;;;;;;5009564;28;20052;-64
2022/11/15 11:40:30;;;;;;;8.40;6.00;;;12.80;99.90;;;;;;5029886;28;20200;-63
2022/11/15 11:43:21;;;;;;;9.10;5.97;;;13.00;99.90;;;;;;5025773;28;20049;-63
2022/11/15 11:46:22;;;;;;;10.50;5.95;;;13.00;99.90;;;;;;5024770;28;20060;-62
2022/11/15 11:48:56;;;;;;;8.30;5.72;;;13.10;99.90;;;;;;5051901;28;20044;-63
2022/11/15 11:51:32;;;;;;;7.75;5.78;;;13.00;99.90;;;;;;5058853;28;20052;-62
2022/11/15 11:54:06;;;;;;;11.23;5.40;;;13.00;99.90;;;;;;5038850;28;20372;-62
2022/11/15 11:56:34;;;;;;;8.13;5.38;;;13.10;99.90;;;;;;5031540;28;20041;-63
2022/11/15 11:59:25;;;;;;;7.28;5.25;;;13.00;99.90;;;;;;5009027;28;20052;-63
2022/11/15 12:01:51;;;;;;;9.35;5.30;;;13.10;99.90;;;;;;5025383;28;20358;-62
2022/11/15 12:04:29;;;;;;;8.32;5.43;;;13.10;99.90;;;;;;5024039;28;20195;-62
2022/11/15 12:07:08;;;;;;;11.32;8.32;;;13.10;99.90;;;;;;5056190;28;20085;-63
2022/11/15 12:09:43;;;;;;;9.45;6.93;;;13.20;99.90;;;;;;5044357;28;20037;-64
2022/11/15 12:12:30;;;;;;;7.70;5.28;;;13.30;99.90;;;;;;5029831;28;20029;-63
2022/11/15 12:15:01;;;;;;;6.65;4.80;;;13.30;99.90;;;;;;5027042;28;20107;-63
2022/11/15 12:17:31;;;;;;;12.10;9.20;;;13.30;99.90;;;;;;5011393;28;20465;-62
2022/11/15 12:20:04;;;;;;;48.70;37.47;;;13.20;99.90;;;;;;5029278;28;20090;-62
2022/11/15 12:22:59;;;;;;;26.13;19.33;;;13.20;99.90;;;;;;5010298;28;20095;-64
2022/11/15 12:25:51;;;;;;;99.20;71.68;;;13.10;99.90;;;;;;5007700;28;20100;-64
2022/11/15 12:28:38;;;;;;;34.60;25.88;;;13.10;99.90;;;;;;5033301;28;20051;-62
2022/11/15 12:31:16;;;;;;;33.10;25.23;;;13.10;99.90;;;;;;5025615;28;20183;-63
2022/11/15 12:33:45;;;;;;;33.00;24.67;;;13.10;99.90;;;;;;5024834;28;20042;-62
2022/11/15 12:36:23;;;;;;;7.50;4.10;;;13.10;99.90;;;;;;5029284;28;20497;-63
2022/11/15 12:38:59;;;;;;;5.78;3.40;;;13.10;99.90;;;;;;5025409;28;20060;-64
2022/11/15 12:41:33;;;;;;;6.97;4.07;;;13.10;99.90;;;;;;5058183;28;20056;-64
2022/11/15 12:43:59;;;;;;;;;;;13.10;99.90;;;;;;5034232;28;20045;-63
2022/11/15 12:46:30;;;;;;;6.38;3.75;;;13.10;99.90;;;;;;5041313;28;19924;-62
2022/11/15 12:49:30;;;;;;;5.35;3.47;;;13.10;99.90;;;;;;5036215;28;20052;-63
2022/11/15 12:51:59;;;;;;;5.18;3.05;;;13.00;99.90;;;;;;5040698;28;20137;-65
2022/11/15 12:54:26;;;;;;;5.57;3.10;;;13.00;99.90;;;;;;5040865;28;20094;-62
2022/11/15 12:57:06;;;;;;;4.93;3.03;;;12.90;99.90;;;;;;5018215;28;20409;-63
2022/11/15 12:59:55;;;;;;;5.35;2.78;;;12.90;99.90;;;;;;5038456;28;20052;-63
2022/11/15 13:02:45;;;;;;;6.18;2.83;;;12.90;99.90;;;;;;5034678;28;20041;-62
2022/11/15 13:05:19;;;;;;;26.27;23.55;;;12.90;99.90;;;;;;5039098;28;20047;-62
2022/11/15 13:07:45;;;;;;;7.57;5.30;;;12.80;99.90;;;;;;5024092;28;20100;-62
2022/11/15 13:10:13;;;;;;;6.75;4.07;;;12.80;99.90;;;;;;5039137;28;20092;-62